Time;durP1;ratioP1;P1;durP2;ratioP2;P2;SDS_P1;SDS_P2;PMS_P1;PMS_P2;Temp;Humidity;BMP_temperature;BMP_pressure;BME280_temperature;BME280_humidity;BME280_pressure;Samples;Min_cycle;Max_cycle;Signal;HPM_P1;HPM_P2
2023/07/16 00:00:12;;;;;;;4.40;4.30;;;22.70;68.20;;;;;;6272734;28;20779;-81
2023/07/16 00:03:15;;;;;;;4.43;4.23;;;22.60;68.30;;;;;;6282422;28;20244;-82
2023/07/16 00:06:18;;;;;;;5.00;4.60;;;22.70;68.30;;;;;;6255003;28;20246;-82
2023/07/16 00:09:21;;;;;;;4.97;4.57;;;22.70;68.20;;;;;;6261651;28;20245;-83
2023/07/16 00:12:25;;;;;;;5.13;4.87;;;22.70;67.60;;;;;;6265931;28;20257;-81
2023/07/16 00:15:29;;;;;;;4.63;4.30;;;22.70;67.50;;;;;;6277847;28;20245;-83
2023/07/16 00:18:32;;;;;;;4.50;4.23;;;22.70;67.20;;;;;;6271000;28;20805;-80
2023/07/16 00:21:35;;;;;;;4.87;4.53;;;22.70;67.50;;;;;;6270839;28;20238;-80
2023/07/16 00:24:38;;;;;;;4.80;4.50;;;22.60;67.70;;;;;;6255536;28;20746;-83
2023/07/16 00:27:43;;;;;;;4.60;4.50;;;22.60;67.50;;;;;;6255785;28;20241;-80
2023/07/16 00:30:46;;;;;;;4.40;4.10;;;22.60;67.40;;;;;;6269243;28;20721;-81
2023/07/16 00:33:49;;;;;;;4.77;4.47;;;22.60;67.50;;;;;;6281097;28;20244;-80
2023/07/16 00:36:52;;;;;;;4.83;4.70;;;22.60;67.50;;;;;;6261089;28;20297;-81
2023/07/16 00:39:55;;;;;;;4.87;4.60;;;22.60;67.50;;;;;;6264102;28;20237;-79
2023/07/16 00:43:00;;;;;;;4.53;4.33;;;22.60;67.70;;;;;;6263158;28;20779;-82
2023/07/16 00:46:03;;;;;;;4.90;4.40;;;22.60;67.70;;;;;;6278386;28;20283;-80
2023/07/16 00:49:07;;;;;;;4.37;4.10;;;22.60;67.80;;;;;;6263367;28;20242;-81
2023/07/16 00:52:19;;;;;;;4.80;4.50;;;22.60;68.10;;;;;;6254550;28;20249;-83
2023/07/16 00:55:22;;;;;;;4.43;4.13;;;22.60;68.10;;;;;;6267079;28;20230;-81
2023/07/16 00:58:27;;;;;;;4.43;4.17;;;22.70;68.20;;;;;;6275718;28;20234;-81
2023/07/16 01:01:30;;;;;;;4.70;4.33;;;22.70;68.50;;;;;;6270409;28;20281;-79
2023/07/16 01:04:33;;;;;;;4.67;4.27;;;22.80;68.40;;;;;;6262678;28;20881;-82
2023/07/16 01:07:39;;;;;;;5.23;4.83;;;22.70;68.60;;;;;;6268021;28;20295;-84
2023/07/16 01:10:43;;;;;;;5.77;5.33;;;22.70;68.60;;;;;;6251503;28;20860;-80
2023/07/16 01:13:48;;;;;;;4.60;4.40;;;22.60;68.90;;;;;;6253056;28;20245;-80
2023/07/16 01:16:53;;;;;;;4.50;4.23;;;22.60;69.20;;;;;;6278295;28;20233;-80
2023/07/16 01:19:57;;;;;;;5.20;4.80;;;22.50;69.40;;;;;;6276175;28;20243;-79
2023/07/16 01:23:27;;;;;;;4.83;4.53;;;22.50;69.80;;;;;;6260541;28;20680;-81
2023/07/16 01:26:55;;;;;;;4.70;4.50;;;22.50;70.00;;;;;;6263919;28;20241;-79
2023/07/16 01:30:03;;;;;;;8.47;7.87;;;22.30;70.00;;;;;;6265458;28;20237;-80
2023/07/16 01:33:10;;;;;;;6.07;5.77;;;22.30;70.20;;;;;;6267271;28;20268;-79
2023/07/16 01:36:14;;;;;;;6.20;5.50;;;22.20;70.20;;;;;;6257818;28;20241;-81
2023/07/16 01:39:17;;;;;;;5.40;5.10;;;22.10;70.40;;;;;;6261433;28;20250;-81
2023/07/16 01:42:21;;;;;;;5.97;5.57;;;22.10;70.50;;;;;;6232645;28;20242;-82
2023/07/16 01:45:25;;;;;;;6.13;5.60;;;22.00;70.60;;;;;;6251585;28;20241;-83
2023/07/16 01:48:31;;;;;;;5.97;5.57;;;22.00;70.70;;;;;;6257296;28;20265;-80
2023/07/16 01:51:34;;;;;;;6.50;5.90;;;21.90;71.00;;;;;;6250497;28;20318;-84
2023/07/16 01:54:37;;;;;;;5.67;5.30;;;21.80;71.40;;;;;;6226082;28;20231;-82
2023/07/16 01:57:41;;;;;;;5.80;5.50;;;21.80;71.20;;;;;;6228762;28;20258;-85
2023/07/16 02:00:45;;;;;;;5.40;4.97;;;21.80;71.00;;;;;;6248990;28;20661;-85
2023/07/16 02:03:48;;;;;;;6.00;5.43;;;21.90;70.30;;;;;;6244859;28;20730;-83
2023/07/16 02:06:51;;;;;;;5.23;4.90;;;21.90;70.00;;;;;;6232559;28;20881;-78
2023/07/16 02:09:55;;;;;;;5.13;4.80;;;22.00;69.40;;;;;;6225339;28;20385;-83
2023/07/16 02:13:00;;;;;;;5.37;4.93;;;22.10;69.20;;;;;;6222904;28;20333;-84
2023/07/16 02:16:05;;;;;;;5.00;4.60;;;22.10;68.80;;;;;;6236781;28;20243;-80
2023/07/16 02:19:09;;;;;;;4.43;4.10;;;22.10;68.60;;;;;;6250572;28;20326;-82
2023/07/16 02:22:12;;;;;;;4.00;3.73;;;22.20;68.30;;;;;;6262148;28;20244;-81
2023/07/16 02:25:16;;;;;;;4.43;4.10;;;22.20;68.80;;;;;;6238410;28;20238;-81
2023/07/16 02:28:19;;;;;;;5.50;4.03;;;22.00;70.10;;;;;;6238289;28;20291;-80
2023/07/16 02:31:23;;;;;;;4.30;3.90;;;21.90;71.30;;;;;;6245593;28;20235;-81
2023/07/16 02:34:26;;;;;;;9.53;4.43;;;21.70;72.10;;;;;;6249043;28;20238;-84
2023/07/16 02:37:30;;;;;;;4.47;4.27;;;21.50;72.90;;;;;;6243784;28;20247;-79
2023/07/16 02:40:33;;;;;;;4.07;3.87;;;21.30;73.90;;;;;;6230294;28;20936;-80
2023/07/16 02:43:36;;;;;;;3.93;3.83;;;21.20;73.90;;;;;;6243327;28;20419;-79
2023/07/16 02:46:41;;;;;;;4.10;4.00;;;21.10;74.60;;;;;;6253719;28;20246;-82
2023/07/16 02:49:44;;;;;;;4.30;4.10;;;21.10;74.60;;;;;;6258462;28;21009;-82
2023/07/16 02:52:47;;;;;;;4.53;4.33;;;20.90;75.50;;;;;;6257347;28;20363;-83
2023/07/16 02:55:50;;;;;;;4.63;4.33;;;20.70;76.00;;;;;;6236591;28;20386;-82
2023/07/16 02:58:54;;;;;;;4.70;4.50;;;20.60;76.50;;;;;;6230368;28;20719;-82
2023/07/16 03:01:58;;;;;;;4.60;4.40;;;20.70;76.40;;;;;;6231248;28;20265;-84
2023/07/16 03:05:01;;;;;;;5.40;4.70;;;20.70;76.60;;;;;;6247741;28;20296;-81
2023/07/16 03:08:05;;;;;;;4.73;4.53;;;20.70;77.00;;;;;;6233298;28;20235;-79
2023/07/16 03:11:09;;;;;;;5.07;4.87;;;20.70;77.50;;;;;;6248922;28;20239;-83
2023/07/16 03:14:12;;;;;;;5.83;5.40;;;20.60;77.70;;;;;;6247740;28;20264;-82
2023/07/16 03:17:16;;;;;;;5.13;4.93;;;20.50;78.30;;;;;;6248787;28;20244;-83
2023/07/16 03:20:19;;;;;;;5.00;4.70;;;20.50;78.30;;;;;;6256076;28;20237;-82
2023/07/16 03:23:23;;;;;;;4.97;4.77;;;20.50;78.00;;;;;;6239898;28;21010;-84
2023/07/16 03:26:26;;;;;;;4.67;4.47;;;20.60;78.00;;;;;;6245258;28;20317;-79
2023/07/16 03:29:29;;;;;;;5.10;4.80;;;20.50;78.30;;;;;;6236240;28;20309;-79
2023/07/16 03:32:33;;;;;;;4.30;4.00;;;20.50;78.20;;;;;;6226446;28;20321;-81
2023/07/16 03:35:52;;;;;;;4.60;4.37;;;20.50;78.20;;;;;;6239639;28;20779;-81
2023/07/16 03:38:55;;;;;;;5.00;4.50;;;20.60;78.00;;;;;;6224010;28;20243;-80
2023/07/16 03:41:58;;;;;;;4.50;4.20;;;20.50;78.00;;;;;;6232176;28;20245;-79
2023/07/16 03:45:01;;;;;;;4.00;3.80;;;20.40;78.60;;;;;;6234424;28;20383;-81
2023/07/16 03:48:07;;;;;;;4.57;4.20;;;20.30;78.50;;;;;;6223237;28;20246;-79
2023/07/16 03:51:10;;;;;;;3.93;3.83;;;20.30;78.20;;;;;;6234590;28;20239;-82
2023/07/16 03:54:13;;;;;;;4.53;4.10;;;20.20;78.50;;;;;;6236334;28;20239;-80
2023/07/16 03:57:16;;;;;;;4.03;3.90;;;20.10;78.60;;;;;;6231598;28;20254;-80
2023/07/16 04:00:20;;;;;;;3.73;3.53;;;20.10;78.70;;;;;;6238730;28;20235;-82
2023/07/16 04:03:24;;;;;;;3.83;3.73;;;20.10;78.40;;;;;;6234770;28;20318;-80
2023/07/16 04:06:27;;;;;;;4.00;3.77;;;20.20;78.60;;;;;;6237153;28;20604;-81
2023/07/16 04:09:31;;;;;;;3.33;3.23;;;20.20;78.50;;;;;;6228387;28;20277;-82
2023/07/16 04:12:34;;;;;;;3.60;3.50;;;20.20;78.30;;;;;;6229609;28;20231;-79
2023/07/16 04:15:37;;;;;;;4.40;4.10;;;20.30;78.30;;;;;;6243523;28;20345;-78
2023/07/16 04:18:41;;;;;;;3.80;3.70;;;20.30;78.20;;;;;;6248194;28;20230;-80
2023/07/16 04:21:44;;;;;;;3.80;3.57;;;20.30;78.20;;;;;;6240893;28;20770;-79
2023/07/16 04:24:47;;;;;;;3.97;3.87;;;20.30;78.10;;;;;;6234640;28;20240;-81
2023/07/16 04:27:50;;;;;;;3.83;3.73;;;20.30;78.20;;;;;;6231356;28;20314;-79
2023/07/16 04:30:54;;;;;;;4.00;3.80;;;20.30;78.20;;;;;;6229975;28;20768;-78
2023/07/16 04:33:59;;;;;;;3.47;3.20;;;20.30;78.00;;;;;;6225018;28;20281;-80
2023/07/16 04:37:02;;;;;;;3.63;3.53;;;20.50;77.60;;;;;;6242218;28;20897;-79
2023/07/16 04:40:07;;;;;;;4.23;3.93;;;20.50;77.30;;;;;;6233684;28;20235;-80
2023/07/16 04:43:10;;;;;;;3.70;3.60;;;20.30;77.50;;;;;;6236938;28;20237;-80
2023/07/16 04:46:13;;;;;;;4.37;4.20;;;20.10;77.80;;;;;;6246959;28;20245;-80
2023/07/16 04:49:18;;;;;;;3.93;3.80;;;20.10;78.30;;;;;;6248012;28;20234;-80
2023/07/16 04:52:21;;;;;;;4.50;4.30;;;20.10;78.40;;;;;;6242567;28;20289;-80
2023/07/16 04:55:24;;;;;;;4.37;4.27;;;20.00;78.70;;;;;;6253821;28;20240;-79
2023/07/16 04:58:29;;;;;;;4.27;4.17;;;20.00;79.00;;;;;;6245904;28;20312;-80
2023/07/16 05:01:32;;;;;;;4.87;4.63;;;20.00;79.00;;;;;;6219588;28;20238;-79
2023/07/16 05:04:37;;;;;;;5.00;4.77;;;20.10;79.00;;;;;;6245780;28;20357;-81
2023/07/16 05:07:40;;;;;;;4.73;4.43;;;20.10;78.50;;;;;;6231296;28;20840;-79
2023/07/16 05:10:43;;;;;;;4.90;4.60;;;20.30;78.50;;;;;;6227855;28;20313;-81
2023/07/16 05:13:46;;;;;;;4.27;4.17;;;20.30;78.10;;;;;;6240486;28;20719;-81
2023/07/16 05:16:49;;;;;;;4.60;4.30;;;20.30;77.70;;;;;;6228503;28;20856;-77
2023/07/16 05:19:54;;;;;;;4.80;4.60;;;20.50;77.70;;;;;;6224916;28;20226;-82
2023/07/16 05:22:59;;;;;;;5.37;5.07;;;20.50;77.20;;;;;;6245911;28;20256;-79
2023/07/16 05:26:02;;;;;;;4.57;4.37;;;20.50;77.50;;;;;;6225928;28;20253;-80
2023/07/16 05:29:05;;;;;;;4.53;4.23;;;20.50;77.40;;;;;;6233829;28;20851;-81
2023/07/16 05:32:09;;;;;;;4.30;4.10;;;20.70;76.70;;;;;;6236069;28;20247;-80
2023/07/16 05:35:14;;;;;;;4.80;4.60;;;20.80;76.50;;;;;;6244439;28;20231;-78
2023/07/16 05:38:17;;;;;;;4.73;4.43;;;21.10;76.20;;;;;;6216362;28;20239;-80
2023/07/16 05:41:20;;;;;;;4.43;4.17;;;21.30;75.00;;;;;;6237326;28;20260;-79
2023/07/16 05:44:26;;;;;;;4.90;4.50;;;21.50;74.40;;;;;;6232839;28;20717;-81
2023/07/16 05:47:30;;;;;;;4.93;4.50;;;21.40;74.20;;;;;;6231287;28;20277;-79
2023/07/16 05:50:34;;;;;;;4.70;4.50;;;21.30;74.30;;;;;;6245404;28;20261;-82
2023/07/16 05:53:38;;;;;;;4.70;4.40;;;21.30;74.10;;;;;;6233162;28;20246;-81
2023/07/16 05:56:41;;;;;;;4.70;4.03;;;21.20;74.30;;;;;;6226419;28;20223;-80
2023/07/16 05:59:44;;;;;;;4.43;4.23;;;21.40;74.10;;;;;;6235148;28;20227;-80
2023/07/16 06:02:47;;;;;;;4.40;4.20;;;21.50;73.90;;;;;;6243641;28;20320;-79
2023/07/16 06:05:52;;;;;;;4.50;4.37;;;21.90;73.90;;;;;;6225761;28;20234;-79
2023/07/16 06:08:55;;;;;;;4.10;3.90;;;22.10;72.30;;;;;;6229385;28;20242;-81
2023/07/16 06:11:58;;;;;;;4.67;4.40;;;22.30;71.80;;;;;;6239816;28;20247;-78
2023/07/16 06:15:01;;;;;;;5.07;4.77;;;22.60;71.40;;;;;;6238241;28;20234;-79
2023/07/16 06:18:04;;;;;;;4.60;4.20;;;22.50;70.80;;;;;;6228964;28;20239;-81
2023/07/16 06:21:09;;;;;;;4.53;4.17;;;22.80;69.80;;;;;;6234843;28;20245;-79
2023/07/16 06:24:12;;;;;;;3.77;3.67;;;23.00;69.50;;;;;;6229371;28;20234;-83
2023/07/16 06:27:19;;;;;;;4.27;4.17;;;23.00;70.30;;;;;;6233356;28;20234;-77
2023/07/16 06:30:22;;;;;;;4.57;4.37;;;23.30;69.40;;;;;;6227044;28;20242;-78
2023/07/16 06:33:27;;;;;;;5.33;4.10;;;23.30;69.10;;;;;;6231024;28;20611;-79
2023/07/16 06:36:31;;;;;;;4.47;4.17;;;23.40;69.00;;;;;;6235142;28;20309;-78
2023/07/16 06:39:34;;;;;;;4.37;4.27;;;23.40;68.40;;;;;;6231088;28;20235;-81
2023/07/16 06:42:37;;;;;;;4.33;4.13;;;23.60;68.20;;;;;;6228261;28;20241;-82
2023/07/16 06:45:40;;;;;;;3.80;3.60;;;24.20;67.20;;;;;;6219556;28;20322;-79
2023/07/16 06:48:43;;;;;;;4.37;4.07;;;24.60;66.60;;;;;;6236506;28;20229;-79
2023/07/16 06:51:48;;;;;;;4.33;4.20;;;24.40;65.80;;;;;;6238362;28;20261;-79
2023/07/16 06:54:51;;;;;;;4.70;4.30;;;24.20;66.00;;;;;;6233786;28;20278;-81
2023/07/16 06:57:54;;;;;;;3.83;3.73;;;24.30;65.70;;;;;;6231286;28;20246;-80
2023/07/16 07:00:57;;;;;;;4.50;4.07;;;24.00;66.30;;;;;;6239576;28;20239;-84
2023/07/16 07:04:01;;;;;;;4.47;4.17;;;24.20;65.90;;;;;;6248634;28;20393;-80
2023/07/16 07:07:06;;;;;;;4.00;3.90;;;24.20;65.90;;;;;;6242709;28;20784;-80
2023/07/16 07:10:12;;;;;;;4.30;4.10;;;24.20;65.40;;;;;;6232828;28;20361;-82
2023/07/16 07:13:15;;;;;;;4.10;4.00;;;24.10;65.80;;;;;;6232576;28;20680;-80
2023/07/16 07:16:19;;;;;;;3.93;3.83;;;24.20;66.00;;;;;;6239052;28;20239;-81
2023/07/16 07:19:23;;;;;;;3.93;3.83;;;24.00;65.60;;;;;;6232881;28;20238;-80
2023/07/16 07:22:27;;;;;;;4.87;4.43;;;23.60;66.70;;;;;;6237272;28;20313;-78
2023/07/16 07:25:30;;;;;;;4.57;4.13;;;23.80;66.80;;;;;;6232720;28;20235;-81
2023/07/16 07:28:33;;;;;;;3.87;3.67;;;23.90;66.10;;;;;;6242124;28;20227;-78
2023/07/16 07:31:36;;;;;;;4.10;4.00;;;24.00;65.60;;;;;;6239409;28;20329;-79
2023/07/16 07:34:40;;;;;;;4.17;3.90;;;24.00;66.40;;;;;;6264835;28;20291;-81
2023/07/16 07:37:44;;;;;;;4.23;3.90;;;24.20;65.10;;;;;;6257191;28;20878;-80
2023/07/16 07:40:47;;;;;;;7.40;3.90;;;24.20;65.20;;;;;;6239039;28;20249;-79
2023/07/16 07:43:50;;;;;;;4.17;3.80;;;24.30;65.70;;;;;;6270845;28;20300;-81
2023/07/16 07:46:55;;;;;;;4.30;3.90;;;24.50;64.30;;;;;;6268162;28;20254;-79
2023/07/16 07:49:58;;;;;;;4.40;3.80;;;24.30;64.60;;;;;;6259010;28;20237;-78
2023/07/16 07:53:03;;;;;;;4.00;3.70;;;24.40;64.60;;;;;;6250137;28;20245;-80
2023/07/16 07:56:06;;;;;;;3.57;3.47;;;24.30;64.50;;;;;;6270394;28;20367;-80
2023/07/16 07:59:09;;;;;;;3.67;3.40;;;24.40;64.00;;;;;;6269000;28;20237;-81
2023/07/16 08:02:14;;;;;;;4.00;3.80;;;24.20;63.50;;;;;;6266074;28;20236;-79
2023/07/16 08:05:17;;;;;;;3.60;3.40;;;23.40;65.00;;;;;;6256070;28;20234;-81
2023/07/16 08:08:21;;;;;;;2.97;2.87;;;23.20;66.10;;;;;;6253172;28;20238;-80
2023/07/16 08:11:25;;;;;;;3.90;3.60;;;23.50;64.40;;;;;;6262362;28;20326;-81
2023/07/16 08:14:28;;;;;;;2.93;2.93;;;23.80;63.80;;;;;;6257444;28;20238;-81
2023/07/16 08:17:31;;;;;;;3.40;3.30;;;24.20;63.60;;;;;;6271694;28;20242;-79
2023/07/16 08:20:36;;;;;;;3.13;2.93;;;24.60;62.10;;;;;;6245607;28;20242;-80
2023/07/16 08:23:41;;;;;;;3.10;2.90;;;24.20;62.00;;;;;;6254103;28;20245;-83
2023/07/16 08:26:44;;;;;;;2.97;2.87;;;24.00;62.30;;;;;;6262316;28;20234;-80
2023/07/16 08:29:47;;;;;;;5.23;3.43;;;24.00;61.40;;;;;;6255332;28;20238;-79
2023/07/16 08:32:50;;;;;;;3.20;3.00;;;24.00;60.90;;;;;;6264785;28;20296;-80
2023/07/16 08:35:56;;;;;;;3.00;2.90;;;23.60;60.20;;;;;;6260373;28;20225;-81
2023/07/16 08:39:01;;;;;;;2.80;2.60;;;23.50;60.70;;;;;;6242675;28;20226;-83
2023/07/16 08:42:05;;;;;;;4.20;2.87;;;23.70;60.30;;;;;;6247023;28;20254;-83
2023/07/16 08:45:11;;;;;;;3.10;2.90;;;24.00;60.00;;;;;;6245476;28;20226;-78
2023/07/16 08:48:14;;;;;;;3.43;3.07;;;24.20;60.20;;;;;;6246850;28;20651;-81
2023/07/16 08:51:18;;;;;;;3.17;3.00;;;24.30;59.50;;;;;;6234952;28;20756;-81
2023/07/16 08:54:25;;;;;;;3.00;2.90;;;24.60;59.90;;;;;;6237438;28;20368;-80
2023/07/16 08:57:29;;;;;;;3.27;3.10;;;25.00;58.60;;;;;;6250325;28;20230;-82
2023/07/16 09:00:34;;;;;;;3.27;3.13;;;25.20;58.30;;;;;;6233333;28;20772;-82
2023/07/16 09:03:37;;;;;;;3.10;2.97;;;25.30;56.20;;;;;;6227940;28;20239;-81
2023/07/16 09:06:40;;;;;;;3.57;3.27;;;25.50;55.90;;;;;;6233171;28;20246;-80
2023/07/16 09:10:00;;;;;;;3.60;3.40;;;25.50;56.40;;;;;;6254685;28;20753;-81
2023/07/16 09:13:04;;;;;;;3.10;2.90;;;25.70;56.00;;;;;;6253345;28;20245;-81
2023/07/16 09:16:07;;;;;;;3.43;3.23;;;26.10;55.20;;;;;;6244505;28;20242;-80
2023/07/16 09:19:13;;;;;;;3.20;3.10;;;26.30;55.20;;;;;;6259099;28;20263;-82
2023/07/16 09:22:18;;;;;;;3.23;3.13;;;26.70;55.40;;;;;;6250955;28;20244;-80
2023/07/16 09:25:27;;;;;;;2.77;2.57;;;26.90;53.90;;;;;;6223161;28;20309;-79
2023/07/16 09:28:31;;;;;;;3.23;3.00;;;27.10;52.60;;;;;;6232796;28;20321;-81
2023/07/16 09:31:34;;;;;;;3.23;3.03;;;27.00;52.70;;;;;;6237266;28;20269;-79
2023/07/16 09:34:40;;;;;;;3.57;3.37;;;26.70;53.30;;;;;;6255818;28;20294;-82
2023/07/16 09:37:44;;;;;;;4.47;3.43;;;26.60;53.50;;;;;;6240016;28;20262;-80
2023/07/16 09:40:49;;;;;;;3.07;2.97;;;26.40;53.70;;;;;;6257503;28;20235;-77
2023/07/16 09:43:52;;;;;;;3.30;3.00;;;26.50;54.40;;;;;;6256456;28;20259;-82
2023/07/16 09:46:56;;;;;;;3.93;2.83;;;26.60;52.30;;;;;;6257606;28;20290;-80
2023/07/16 09:49:59;;;;;;;3.30;3.10;;;26.20;53.00;;;;;;6244280;28;20715;-83
2023/07/16 09:53:03;;;;;;;3.27;3.03;;;25.80;53.90;;;;;;6246746;28;20690;-81
2023/07/16 09:56:11;;;;;;;3.07;2.87;;;25.60;53.90;;;;;;6251107;28;20920;-78
2023/07/16 09:59:15;;;;;;;3.10;3.00;;;25.60;54.00;;;;;;6253247;28;20289;-81
2023/07/16 10:02:20;;;;;;;3.00;2.90;;;25.60;53.90;;;;;;6245060;28;20302;-82
2023/07/16 10:05:26;;;;;;;3.33;3.13;;;25.50;53.60;;;;;;6258761;28;20239;-82
2023/07/16 10:08:35;;;;;;;3.17;3.07;;;25.40;53.90;;;;;;6244477;28;20256;-80
2023/07/16 10:11:41;;;;;;;2.80;2.70;;;25.60;54.20;;;;;;6245260;28;20231;-78
2023/07/16 10:14:46;;;;;;;3.23;3.00;;;25.80;54.00;;;;;;6242384;28;20227;-78
2023/07/16 10:17:51;;;;;;;3.20;3.10;;;25.80;53.60;;;;;;6240495;28;20783;-81
2023/07/16 10:20:55;;;;;;;3.83;3.27;;;25.80;53.80;;;;;;6234897;28;20242;-79
2023/07/16 10:24:03;;;;;;;4.27;3.50;;;26.00;53.60;;;;;;6249689;28;20243;-78
2023/07/16 10:27:07;;;;;;;2.83;2.63;;;25.80;53.20;;;;;;6223401;28;20606;-78
2023/07/16 10:30:11;;;;;;;3.63;3.33;;;26.00;53.10;;;;;;6235746;28;20473;-82
2023/07/16 10:33:14;;;;;;;3.57;3.13;;;26.10;52.10;;;;;;6242247;28;20602;-77
2023/07/16 10:36:19;;;;;;;4.20;3.90;;;26.30;53.10;;;;;;6250332;28;20356;-79
2023/07/16 10:39:22;;;;;;;3.40;3.27;;;26.10;53.10;;;;;;6247381;28;20230;-78
2023/07/16 10:42:29;;;;;;;3.20;3.10;;;26.30;52.50;;;;;;6235049;28;20890;-80
2023/07/16 10:45:32;;;;;;;3.50;3.20;;;26.20;52.70;;;;;;6240425;28;20304;-79
2023/07/16 10:48:35;;;;;;;3.67;3.47;;;26.20;52.60;;;;;;6247292;28;20413;-80
2023/07/16 10:51:38;;;;;;;3.33;3.13;;;25.80;52.70;;;;;;6236076;28;20957;-77
2023/07/16 10:54:41;;;;;;;3.83;3.53;;;25.70;53.20;;;;;;6243242;28;20917;-77
2023/07/16 10:57:48;;;;;;;3.47;3.37;;;25.80;53.30;;;;;;6246764;28;21173;-80
2023/07/16 11:00:51;;;;;;;3.37;3.17;;;25.80;53.40;;;;;;6235559;28;20238;-78
2023/07/16 11:03:54;;;;;;;3.23;2.93;;;25.80;53.30;;;;;;6242223;28;20250;-79
2023/07/16 11:06:58;;;;;;;3.47;3.27;;;25.80;53.20;;;;;;6246226;28;20246;-82
2023/07/16 11:10:02;;;;;;;3.93;3.63;;;25.50;54.00;;;;;;6236604;28;20298;-81
2023/07/16 11:13:07;;;;;;;3.60;3.40;;;25.30;53.90;;;;;;6232639;28;20242;-79
2023/07/16 11:16:10;;;;;;;3.73;3.40;;;25.50;54.10;;;;;;6237052;28;20255;-78
2023/07/16 11:19:14;;;;;;;3.30;3.10;;;25.80;53.40;;;;;;6234211;28;20891;-81
2023/07/16 11:22:17;;;;;;;3.40;3.30;;;25.80;53.30;;;;;;6235016;28;20237;-79
2023/07/16 11:25:21;;;;;;;3.80;3.53;;;26.20;54.30;;;;;;6237335;28;20373;-80
2023/07/16 11:28:37;;;;;;;3.67;3.37;;;26.60;52.60;;;;;;6237272;28;21052;-80
2023/07/16 11:31:40;;;;;;;3.00;2.90;;;26.50;52.20;;;;;;6246757;28;20242;-80
2023/07/16 11:34:54;;;;;;;3.47;3.37;;;26.60;52.20;;;;;;6246925;28;20641;-80
2023/07/16 11:37:57;;;;;;;3.60;3.50;;;26.70;52.70;;;;;;6253877;28;20291;-79
2023/07/16 11:41:01;;;;;;;5.80;3.83;;;26.90;52.30;;;;;;6250219;28;20247;-79
2023/07/16 11:44:09;;;;;;;4.80;3.50;;;26.70;52.40;;;;;;6236219;28;20250;-82
2023/07/16 11:47:12;;;;;;;3.20;3.10;;;26.70;52.70;;;;;;6231012;28;20261;-83
2023/07/16 11:50:17;;;;;;;3.80;3.70;;;26.80;52.10;;;;;;6231903;28;20233;-80
2023/07/16 11:53:20;;;;;;;3.17;3.07;;;27.00;52.20;;;;;;6259821;28;20234;-81
2023/07/16 11:56:23;;;;;;;5.27;3.37;;;27.00;51.10;;;;;;6245536;28;20281;-80
2023/07/16 11:59:28;;;;;;;3.33;3.23;;;27.10;50.60;;;;;;6257249;28;20233;-81
2023/07/16 12:02:31;;;;;;;3.27;3.03;;;27.50;49.80;;;;;;6246868;28;20222;-81
2023/07/16 12:05:35;;;;;;;3.43;3.33;;;27.70;48.40;;;;;;6246158;28;20677;-81
2023/07/16 12:08:55;;;;;;;3.67;3.40;;;27.20;48.80;;;;;;6246369;28;20247;-76
2023/07/16 12:11:58;;;;;;;2.50;2.40;;;27.00;48.80;;;;;;6246637;28;20253;-82
2023/07/16 12:15:03;;;;;;;3.30;3.17;;;26.80;47.80;;;;;;6222070;28;20238;-82
2023/07/16 12:18:06;;;;;;;3.73;3.53;;;26.80;46.10;;;;;;6244051;28;20310;-83
2023/07/16 12:21:09;;;;;;;3.20;2.90;;;26.80;46.40;;;;;;6248936;28;20291;-84
2023/07/16 12:24:13;;;;;;;3.10;2.80;;;26.60;45.30;;;;;;6230785;28;20237;-79
2023/07/16 12:27:18;;;;;;;3.13;3.03;;;26.60;44.80;;;;;;6242453;28;20239;-78
2023/07/16 12:30:22;;;;;;;3.20;3.10;;;26.50;44.60;;;;;;6254436;28;20610;-78
2023/07/16 12:33:25;;;;;;;3.10;3.00;;;26.60;44.10;;;;;;6232393;28;20239;-80
2023/07/16 12:36:29;;;;;;;3.63;3.40;;;26.90;44.40;;;;;;6239531;28;20296;-81
2023/07/16 12:39:32;;;;;;;2.93;2.73;;;27.20;43.90;;;;;;6252651;28;20253;-77
2023/07/16 12:42:38;;;;;;;3.17;2.87;;;27.00;43.40;;;;;;6233514;28;20241;-79
2023/07/16 12:45:43;;;;;;;3.43;3.23;;;27.00;43.90;;;;;;6244621;28;20269;-81
2023/07/16 12:48:46;;;;;;;3.30;3.20;;;26.80;43.60;;;;;;6255569;28;20229;-78
2023/07/16 12:51:49;;;;;;;3.10;3.00;;;26.80;43.90;;;;;;6247320;28;20242;-79
2023/07/16 12:54:52;;;;;;;3.10;2.90;;;27.10;43.30;;;;;;6221663;28;20243;-77
2023/07/16 12:57:58;;;;;;;3.40;2.83;;;27.20;44.00;;;;;;6227940;28;20327;-80
2023/07/16 13:01:04;;;;;;;2.53;2.33;;;27.00;43.80;;;;;;6224689;28;20241;-82
2023/07/16 13:04:08;;;;;;;3.60;2.90;;;27.20;43.80;;;;;;6243550;28;20742;-78
2023/07/16 13:07:11;;;;;;;3.00;2.80;;;27.50;42.60;;;;;;6239957;28;20232;-80
2023/07/16 13:10:14;;;;;;;3.10;2.90;;;27.30;43.20;;;;;;6237698;28;20798;-80
2023/07/16 13:13:26;;;;;;;4.73;3.03;;;27.10;43.80;;;;;;6228007;28;20294;-79
2023/07/16 13:16:30;;;;;;;2.90;2.70;;;27.20;43.30;;;;;;6239347;28;20234;-78
2023/07/16 13:19:34;;;;;;;3.33;3.13;;;27.30;43.40;;;;;;6242715;28;20241;-79
2023/07/16 13:22:37;;;;;;;3.17;3.07;;;27.10;44.20;;;;;;6245555;28;20234;-80
2023/07/16 13:25:40;;;;;;;3.53;3.33;;;27.30;44.90;;;;;;6249675;28;20231;-80
2023/07/16 13:28:43;;;;;;;3.37;3.13;;;27.40;43.50;;;;;;6239875;28;20242;-79
2023/07/16 13:31:48;;;;;;;2.83;2.70;;;27.20;44.30;;;;;;6227764;28;20279;-79
2023/07/16 13:34:51;;;;;;;2.80;2.63;;;27.40;44.90;;;;;;6239391;28;20257;-79
2023/07/16 13:37:54;;;;;;;3.03;2.80;;;27.80;43.50;;;;;;6228534;28;20778;-79
2023/07/16 13:40:57;;;;;;;2.80;2.70;;;28.00;43.30;;;;;;6230250;28;20264;-79
2023/07/16 13:44:00;;;;;;;3.07;2.97;;;28.20;43.10;;;;;;6244618;28;20239;-82
2023/07/16 13:47:05;;;;;;;3.50;3.23;;;28.30;43.00;;;;;;6238883;28;20290;-78
2023/07/16 13:50:08;;;;;;;4.47;2.90;;;28.20;42.50;;;;;;6236390;28;20317;-81
2023/07/16 13:53:12;;;;;;;2.87;2.67;;;28.00;42.50;;;;;;6237301;28;20223;-79
2023/07/16 13:56:15;;;;;;;2.70;2.60;;;28.10;42.70;;;;;;6242302;28;20238;-77
2023/07/16 13:59:20;;;;;;;3.10;3.00;;;27.90;43.10;;;;;;6231216;28;20592;-81
2023/07/16 14:02:27;;;;;;;5.03;3.17;;;28.10;43.40;;;;;;6238671;28;20246;-80
2023/07/16 14:05:34;;;;;;;3.00;2.57;;;28.30;42.90;;;;;;6243418;28;20231;-80
2023/07/16 14:08:37;;;;;;;3.30;3.13;;;28.50;42.40;;;;;;6240633;28;20231;-79
2023/07/16 14:11:40;;;;;;;2.83;2.73;;;28.10;41.90;;;;;;6241655;28;20718;-80
2023/07/16 14:14:43;;;;;;;2.80;2.60;;;28.10;42.50;;;;;;6239290;28;20313;-80
2023/07/16 14:17:48;;;;;;;4.37;2.97;;;28.20;42.00;;;;;;6235770;28;20329;-80
2023/07/16 14:20:51;;;;;;;6.07;2.87;;;28.50;41.90;;;;;;6230054;28;20245;-81
2023/07/16 14:23:54;;;;;;;2.80;2.70;;;28.70;41.00;;;;;;6231835;28;20855;-79
2023/07/16 14:27:00;;;;;;;2.63;2.53;;;28.70;41.00;;;;;;6258179;28;20322;-78
2023/07/16 14:30:03;;;;;;;3.33;3.13;;;28.70;40.00;;;;;;6243162;28;20288;-80
2023/07/16 14:33:10;;;;;;;2.93;2.73;;;28.60;40.50;;;;;;6248584;28;20242;-77
2023/07/16 14:36:13;;;;;;;3.37;2.60;;;28.30;40.30;;;;;;6240674;28;20852;-78
2023/07/16 14:39:16;;;;;;;2.83;2.60;;;28.30;41.00;;;;;;6231949;28;20226;-78
2023/07/16 14:42:19;;;;;;;3.20;3.00;;;28.30;41.40;;;;;;6242337;28;20797;-79
2023/07/16 14:45:22;;;;;;;2.70;2.60;;;28.30;40.80;;;;;;6244866;28;20269;-83
2023/07/16 14:48:27;;;;;;;2.57;2.43;;;28.30;40.20;;;;;;6236804;28;20321;-78
2023/07/16 14:51:30;;;;;;;3.03;2.77;;;28.00;40.80;;;;;;6232647;28;20243;-82
2023/07/16 14:54:35;;;;;;;3.00;2.77;;;28.10;40.60;;;;;;6239497;28;20265;-80
2023/07/16 14:57:39;;;;;;;2.57;2.40;;;28.10;40.60;;;;;;6246097;28;20247;-80
2023/07/16 15:00:42;;;;;;;3.43;3.13;;;28.10;40.30;;;;;;6229023;28;20325;-79
2023/07/16 15:03:47;;;;;;;3.17;3.03;;;28.20;39.90;;;;;;6252743;28;20261;-81
2023/07/16 15:06:50;;;;;;;2.73;2.57;;;28.30;39.60;;;;;;6238226;28;20443;-79
2023/07/16 15:09:53;;;;;;;2.93;2.60;;;28.10;40.20;;;;;;6248437;28;20234;-79
2023/07/16 15:12:57;;;;;;;2.30;2.30;;;27.90;40.40;;;;;;6252735;28;20241;-80
2023/07/16 15:16:00;;;;;;;2.97;2.77;;;27.90;40.30;;;;;;6237718;28;20295;-79
2023/07/16 15:19:04;;;;;;;2.87;2.57;;;28.10;40.70;;;;;;6234927;28;20913;-80
2023/07/16 15:22:09;;;;;;;4.30;2.57;;;28.30;40.70;;;;;;6235737;28;20241;-78
2023/07/16 15:25:13;;;;;;;3.17;2.90;;;28.50;40.20;;;;;;6242130;28;20242;-80
2023/07/16 15:28:16;;;;;;;2.57;2.47;;;28.50;40.00;;;;;;6233210;28;20246;-79
2023/07/16 15:31:24;;;;;;;3.50;3.30;;;28.30;40.00;;;;;;6237734;28;20296;-80
2023/07/16 15:34:29;;;;;;;3.17;2.90;;;28.30;40.20;;;;;;6233938;28;20317;-80
2023/07/16 15:37:32;;;;;;;3.07;2.87;;;28.30;40.40;;;;;;6236666;28;20440;-77
2023/07/16 15:40:35;;;;;;;2.60;2.50;;;28.30;39.80;;;;;;6241710;28;20245;-81
2023/07/16 15:43:38;;;;;;;4.00;2.87;;;28.30;39.60;;;;;;6232317;28;20242;-78
2023/07/16 15:46:41;;;;;;;4.30;2.90;;;28.10;40.00;;;;;;6246355;28;20310;-79
2023/07/16 15:49:48;;;;;;;2.77;2.57;;;28.00;40.00;;;;;;6231643;28;20238;-81
2023/07/16 15:52:52;;;;;;;3.50;3.17;;;28.00;40.50;;;;;;6231354;28;20312;-79
2023/07/16 15:55:55;;;;;;;3.83;2.83;;;28.10;41.00;;;;;;6242878;28;20861;-80
2023/07/16 15:58:58;;;;;;;3.17;2.93;;;28.00;40.50;;;;;;6244395;28;20278;-79